Time;durP1;ratioP1;P1;durP2;ratioP2;P2;SDS_P1;SDS_P2;PMS_P1;PMS_P2;Temp;Humidity;BMP_temperature;BMP_pressure;BME280_temperature;BME280_humidity;BME280_pressure;Samples;Min_cycle;Max_cycle;Signal;HPM_P1;HPM_P2
2023/01/13 00:00:00;;;;;;;2.57;2.20;;;;;;;;;;5094623;28;20462;-71
2023/01/13 00:02:27;;;;;;;2.67;2.40;;;;;;;;;;5094908;28;20951;-71
2023/01/13 00:04:54;;;;;;;3.23;2.50;;;;;;;;;;5094480;28;20799;-71
2023/01/13 00:07:21;;;;;;;3.23;2.93;;;;;;;;;;5094665;28;20474;-70
2023/01/13 00:09:48;;;;;;;3.07;1.97;;;;;;;;;;5094370;28;20475;-71
2023/01/13 00:12:17;;;;;;;3.87;2.67;;;;;;;;;;5094618;28;20442;-71
2023/01/13 00:14:44;;;;;;;2.43;1.93;;;;;;;;;;5093093;28;20454;-70
2023/01/13 00:17:11;;;;;;;3.87;2.10;;;;;;;;;;5094341;28;20455;-72
2023/01/13 00:19:39;;;;;;;3.70;2.90;;;;;;;;;;5094132;28;20470;-72
2023/01/13 00:22:06;;;;;;;3.17;2.33;;;;;;;;;;5094414;28;20457;-71
2023/01/13 00:24:33;;;;;;;4.47;2.80;;;;;;;;;;5093771;28;20492;-71
2023/01/13 00:27:00;;;;;;;3.53;2.73;;;;;;;;;;5094309;28;20974;-71
2023/01/13 00:29:29;;;;;;;2.20;2.00;;;;;;;;;;5094109;28;20835;-71
2023/01/13 00:31:57;;;;;;;2.23;2.03;;;;;;;;;;5092838;28;20493;-71
2023/01/13 00:34:24;;;;;;;4.07;2.20;;;;;;;;;;5093581;28;20507;-70
2023/01/13 00:36:51;;;;;;;7.03;2.50;;;;;;;;;;5094095;28;20458;-71
2023/01/13 00:39:18;;;;;;;4.03;2.37;;;;;;;;;;5094000;28;20482;-71
2023/01/13 00:44:31;;;;;;;2.40;2.20;;;;;;;;;;5093540;28;20805;-71
2023/01/13 00:46:58;;;;;;;3.93;2.60;;;;;;;;;;5093753;28;20465;-71
2023/01/13 00:49:25;;;;;;;4.13;3.00;;;;;;;;;;5093753;28;20991;-71
2023/01/13 00:51:52;;;;;;;2.77;2.43;;;;;;;;;;5093953;28;20486;-71
2023/01/13 00:54:20;;;;;;;4.00;2.90;;;;;;;;;;5093541;28;20458;-71
2023/01/13 00:56:47;;;;;;;3.80;2.40;;;;;;;;;;5093401;28;20951;-71
2023/01/13 00:59:14;;;;;;;2.70;2.40;;;;;;;;;;5093788;28;20979;-71
2023/01/13 01:01:42;;;;;;;4.93;2.63;;;;;;;;;;5093981;28;20947;-71
2023/01/13 01:04:10;;;;;;;3.07;2.40;;;;;;;;;;5093152;28;20457;-71
2023/01/13 01:06:38;;;;;;;3.30;2.57;;;;;;;;;;5093428;28;20450;-71
2023/01/13 01:09:05;;;;;;;3.60;2.57;;;;;;;;;;5093270;28;20474;-71
2023/01/13 01:11:33;;;;;;;3.50;2.63;;;;;;;;;;5093147;28;20490;-71
2023/01/13 01:14:01;;;;;;;2.67;1.97;;;;;;;;;;5092819;28;20455;-71
2023/01/13 01:16:30;;;;;;;2.40;1.77;;;;;;;;;;5093678;28;20459;-71
2023/01/13 01:18:59;;;;;;;3.83;2.00;;;;;;;;;;5093029;28;20479;-71
2023/01/13 01:21:27;;;;;;;3.27;2.33;;;;;;;;;;5093219;28;20447;-71
2023/01/13 01:23:55;;;;;;;3.50;2.63;;;;;;;;;;5092785;28;20454;-71
2023/01/13 01:26:22;;;;;;;2.30;1.70;;;;;;;;;;5092876;28;20864;-71
2023/01/13 01:28:50;;;;;;;4.67;2.20;;;;;;;;;;5092987;28;20475;-71
2023/01/13 01:31:18;;;;;;;3.80;2.20;;;;;;;;;;5091605;28;20531;-70
2023/01/13 01:33:46;;;;;;;3.27;2.00;;;;;;;;;;5092860;28;20447;-71
2023/01/13 01:36:15;;;;;;;2.00;1.80;;;;;;;;;;5093147;28;20442;-71
2023/01/13 01:38:42;;;;;;;2.70;2.00;;;;;;;;;;5092853;28;21006;-71
2023/01/13 01:41:10;;;;;;;2.20;2.00;;;;;;;;;;5092986;28;20451;-70
2023/01/13 01:44:02;;;;;;;4.13;2.50;;;;;;;;;;5092650;28;20467;-71
2023/01/13 01:46:31;;;;;;;2.20;2.00;;;;;;;;;;5093207;28;20472;-70
2023/01/13 01:49:00;;;;;;;2.30;2.07;;;;;;;;;;5092823;28;20474;-71
2023/01/13 01:51:31;;;;;;;3.43;2.40;;;;;;;;;;5092610;28;20494;-71
2023/01/13 01:53:59;;;;;;;2.80;2.13;;;;;;;;;;5092619;28;20458;-70
2023/01/13 01:56:26;;;;;;;2.70;2.30;;;;;;;;;;5092910;28;20473;-70
2023/01/13 01:58:54;;;;;;;2.13;1.93;;;;;;;;;;5092762;28;20495;-71
2023/01/13 02:01:22;;;;;;;3.97;2.43;;;;;;;;;;5092718;28;20443;-72
2023/01/13 02:03:53;;;;;;;2.80;2.50;;;;;;;;;;5092197;28;20822;-72
2023/01/13 02:06:20;;;;;;;1.90;1.80;;;;;;;;;;5092709;28;20496;-71
2023/01/13 02:08:48;;;;;;;3.00;2.23;;;;;;;;;;5092659;28;20466;-71
2023/01/13 02:14:08;;;;;;;3.27;2.60;;;;;;;;;;5091881;28;20467;-72
2023/01/13 02:16:37;;;;;;;3.30;2.47;;;;;;;;;;5092747;28;20826;-71
2023/01/13 02:19:09;;;;;;;2.87;2.27;;;;;;;;;;5092948;28;20471;-71
2023/01/13 02:21:48;;;;;;;3.73;2.60;;;;;;;;;;5092653;28;20814;-71
2023/01/13 02:27:27;;;;;;;3.17;2.00;;;;;;;;;;5092776;28;20480;-71
2023/01/13 02:32:57;;;;;;;3.37;2.30;;;;;;;;;;5092514;28;20432;-72
2023/01/13 02:35:26;;;;;;;3.70;2.20;;;;;;;;;;5092460;28;20827;-71
2023/01/13 02:37:54;;;;;;;2.83;2.10;;;;;;;;;;5093614;28;20461;-71
2023/01/13 02:40:24;;;;;;;2.80;2.50;;;;;;;;;;5096388;28;20445;-70
2023/01/13 02:45:49;;;;;;;3.83;2.37;;;;;;;;;;5069590;28;20773;-71
2023/01/13 02:48:17;;;;;;;5.53;2.77;;;;;;;;;;5096191;28;20474;-71
2023/01/13 02:50:45;;;;;;;3.60;2.10;;;;;;;;;;5096085;28;20485;-71
2023/01/13 02:53:15;;;;;;;2.60;1.90;;;;;;;;;;5096457;28;20442;-71
2023/01/13 02:55:45;;;;;;;3.23;2.00;;;;;;;;;;5095493;28;20453;-71
2023/01/13 02:58:14;;;;;;;5.93;2.03;;;;;;;;;;5096012;28;20913;-71
2023/01/13 03:00:42;;;;;;;2.03;1.63;;;;;;;;;;5096113;28;20458;-71
2023/01/13 03:03:10;;;;;;;6.40;2.30;;;;;;;;;;5095926;28;20458;-71
2023/01/13 03:05:38;;;;;;;13.87;6.27;;;;;;;;;;5095491;28;20461;-71
2023/01/13 03:08:17;;;;;;;4.47;2.57;;;;;;;;;;5095597;28;20851;-71
2023/01/13 03:11:02;;;;;;;3.27;2.30;;;;;;;;;;5095680;28;20450;-70
2023/01/13 03:13:41;;;;;;;3.60;2.20;;;;;;;;;;5095432;28;20516;-72
2023/01/13 03:16:15;;;;;;;3.20;2.30;;;;;;;;;;5095877;28;20508;-71
2023/01/13 03:18:48;;;;;;;3.50;2.10;;;;;;;;;;5095461;28;20470;-72
2023/01/13 03:21:18;;;;;;;4.20;2.20;;;;;;;;;;5095559;28;20447;-71
2023/01/13 03:23:50;;;;;;;5.27;2.80;;;;;;;;;;5095107;28;20453;-72
2023/01/13 03:26:18;;;;;;;3.60;1.90;;;;;;;;;;5095613;28;20454;-71
2023/01/13 03:28:48;;;;;;;3.60;1.67;;;;;;;;;;5095256;28;20477;-72
2023/01/13 03:31:22;;;;;;;3.47;2.40;;;;;;;;;;5094182;28;20845;-72
2023/01/13 03:33:54;;;;;;;5.53;1.97;;;;;;;;;;5094810;28;20457;-72
2023/01/13 03:36:24;;;;;;;2.97;2.27;;;;;;;;;;5095309;28;20451;-71
2023/01/13 03:38:53;;;;;;;2.97;2.20;;;;;;;;;;5095359;28;20493;-71
2023/01/13 03:41:23;;;;;;;3.73;2.30;;;;;;;;;;5095024;28;20454;-71
2023/01/13 03:46:40;;;;;;;2.80;1.90;;;;;;;;;;5095257;28;20512;-71
2023/01/13 03:49:10;;;;;;;4.30;2.50;;;;;;;;;;5094638;28;20843;-71
2023/01/13 03:51:39;;;;;;;2.23;2.03;;;;;;;;;;5095097;28;20482;-71
2023/01/13 03:54:08;;;;;;;5.63;2.37;;;;;;;;;;5094409;28;20447;-71
2023/01/13 03:56:39;;;;;;;2.50;2.30;;;;;;;;;;5094892;28;20458;-71
2023/01/13 03:59:07;;;;;;;3.00;2.03;;;;;;;;;;5094820;28;20843;-71
2023/01/13 04:01:37;;;;;;;4.70;2.60;;;;;;;;;;5094792;28;20449;-71
2023/01/13 04:04:06;;;;;;;2.60;1.90;;;;;;;;;;5094475;28;20451;-71
2023/01/13 04:06:38;;;;;;;3.97;2.70;;;;;;;;;;5094456;28;20446;-71
2023/01/13 04:09:09;;;;;;;10.47;6.93;;;;;;;;;;5094503;28;20466;-71
2023/01/13 04:11:39;;;;;;;6.00;3.77;;;;;;;;;;5094468;28;20845;-71
2023/01/13 04:14:07;;;;;;;8.97;3.07;;;;;;;;;;5094172;28;20457;-71
2023/01/13 04:16:34;;;;;;;2.60;2.30;;;;;;;;;;5094455;28;20462;-70
2023/01/13 04:19:01;;;;;;;5.40;3.40;;;;;;;;;;5094101;28;21089;-71
2023/01/13 04:21:29;;;;;;;7.30;3.70;;;;;;;;;;5094325;28;20793;-71
2023/01/13 04:23:57;;;;;;;7.83;4.07;;;;;;;;;;5093823;28;20824;-70
2023/01/13 04:26:25;;;;;;;8.43;4.40;;;;;;;;;;5094234;28;20455;-70
2023/01/13 04:28:53;;;;;;;12.50;7.20;;;;;;;;;;5094102;28;20470;-71
2023/01/13 04:31:20;;;;;;;9.50;5.50;;;;;;;;;;5092381;28;20573;-71
2023/01/13 04:33:48;;;;;;;7.50;4.77;;;;;;;;;;5093672;28;20462;-71
2023/01/13 04:36:15;;;;;;;12.00;8.37;;;;;;;;;;5094039;28;20954;-71
2023/01/13 04:38:42;;;;;;;4.23;3.03;;;;;;;;;;5093934;28;20967;-71
2023/01/13 04:41:10;;;;;;;2.03;1.67;;;;;;;;;;5093855;28;20447;-70
2023/01/13 04:43:37;;;;;;;2.00;1.70;;;;;;;;;;5093507;28;20659;-71
2023/01/13 04:46:04;;;;;;;3.00;1.57;;;;;;;;;;5093881;28;20473;-72
2023/01/13 04:48:31;;;;;;;3.13;1.60;;;;;;;;;;5093528;28;20478;-71
2023/01/13 04:50:59;;;;;;;2.83;1.93;;;;;;;;;;5093618;28;20465;-70
2023/01/13 04:53:26;;;;;;;7.03;2.00;;;;;;;;;;5093858;28;20450;-71
2023/01/13 04:55:53;;;;;;;2.60;1.80;;;;;;;;;;5093738;28;20939;-71
2023/01/13 04:58:22;;;;;;;2.47;1.70;;;;;;;;;;5093669;28;20502;-72
2023/01/13 05:00:50;;;;;;;4.93;2.47;;;;;;;;;;5092742;28;20802;-72
2023/01/13 05:03:17;;;;;;;3.37;2.00;;;;;;;;;;5093829;28;20439;-71
2023/01/13 05:05:44;;;;;;;5.20;3.23;;;;;;;;;;5092962;28;20455;-71
2023/01/13 05:08:11;;;;;;;5.77;3.90;;;;;;;;;;5093519;28;20845;-71
2023/01/13 05:10:38;;;;;;;5.70;2.97;;;;;;;;;;5093544;28;20454;-72
2023/01/13 05:18:36;;;;;;;3.10;2.60;;;;;;;;;;5093199;28;20830;-71
2023/01/13 05:21:03;;;;;;;3.63;1.93;;;;;;;;;;5093544;28;20459;-70
2023/01/13 05:26:15;;;;;;;3.00;1.80;;;;;;;;;;5093429;28;20418;-71
2023/01/13 05:28:42;;;;;;;4.37;2.43;;;;;;;;;;5092993;28;20481;-70
2023/01/13 05:31:13;;;;;;;2.87;2.57;;;;;;;;;;5091473;28;20470;-71
2023/01/13 05:33:40;;;;;;;3.10;2.30;;;;;;;;;;5092911;28;20446;-71
2023/01/13 05:36:08;;;;;;;15.50;6.17;;;;;;;;;;5092952;28;20446;-71
2023/01/13 05:38:35;;;;;;;5.60;3.47;;;;;;;;;;5092957;28;20482;-71
2023/01/13 05:43:47;;;;;;;6.70;2.00;;;;;;;;;;5092542;28;20512;-71
2023/01/13 05:46:16;;;;;;;5.20;3.10;;;;;;;;;;5092841;28;20460;-71
2023/01/13 05:48:44;;;;;;;3.87;3.10;;;;;;;;;;5092626;28;20475;-72
2023/01/13 05:51:12;;;;;;;4.73;2.73;;;;;;;;;;5092809;28;20447;-71
2023/01/13 05:53:40;;;;;;;2.93;2.47;;;;;;;;;;5092701;28;21033;-71
2023/01/13 05:56:07;;;;;;;2.93;2.43;;;;;;;;;;5092887;28;20931;-71
2023/01/13 05:58:35;;;;;;;8.47;3.60;;;;;;;;;;5093070;28;20463;-70
2023/01/13 06:01:02;;;;;;;4.60;2.13;;;;;;;;;;5092890;28;20465;-71
2023/01/13 06:03:31;;;;;;;2.30;1.97;;;;;;;;;;5092232;28;20454;-71
2023/01/13 06:06:00;;;;;;;1.90;1.70;;;;;;;;;;5092670;28;20451;-71
2023/01/13 06:08:27;;;;;;;2.20;1.87;;;;;;;;;;5092747;28;20512;-70
2023/01/13 06:10:54;;;;;;;2.70;2.13;;;;;;;;;;5092640;28;20461;-71
2023/01/13 06:13:22;;;;;;;3.00;1.83;;;;;;;;;;5096150;28;20498;-73
2023/01/13 06:15:49;;;;;;;2.20;2.00;;;;;;;;;;5096343;28;20461;-72
2023/01/13 06:18:16;;;;;;;2.60;1.63;;;;;;;;;;5096768;28;20478;-71
2023/01/13 06:20:44;;;;;;;3.90;2.83;;;;;;;;;;5096570;28;20462;-71
2023/01/13 06:23:12;;;;;;;2.77;2.33;;;;;;;;;;5096518;28;20450;-71
2023/01/13 06:25:42;;;;;;;4.13;2.47;;;;;;;;;;5096349;28;20454;-71
2023/01/13 06:28:09;;;;;;;2.10;1.90;;;;;;;;;;5096395;28;20467;-71
2023/01/13 06:30:38;;;;;;;1.83;1.60;;;;;;;;;;5094902;28;20458;-71
2023/01/13 06:33:07;;;;;;;3.07;2.30;;;;;;;;;;5096428;28;20514;-71
2023/01/13 06:35:36;;;;;;;9.13;2.60;;;;;;;;;;5096016;28;20815;-70
2023/01/13 06:38:05;;;;;;;4.70;2.70;;;;;;;;;;5096419;28;20473;-70
2023/01/13 06:40:33;;;;;;;3.20;2.20;;;;;;;;;;5096224;28;20447;-71
2023/01/13 06:43:14;;;;;;;2.90;2.60;;;;;;;;;;5096021;28;20466;-70
2023/01/13 06:45:42;;;;;;;3.27;2.63;;;;;;;;;;5095784;28;20545;-70
2023/01/13 06:48:10;;;;;;;2.70;2.47;;;;;;;;;;5096145;28;20473;-71
2023/01/13 06:50:37;;;;;;;3.40;2.43;;;;;;;;;;5096393;28;20447;-71
2023/01/13 06:53:05;;;;;;;3.77;2.37;;;;;;;;;;5095860;28;20489;-72
2023/01/13 06:55:32;;;;;;;3.47;2.60;;;;;;;;;;5095447;28;20449;-71
2023/01/13 06:57:59;;;;;;;4.20;2.80;;;;;;;;;;5095920;28;20979;-71
2023/01/13 07:00:27;;;;;;;2.63;2.37;;;;;;;;;;5096033;28;20459;-71
2023/01/13 07:02:54;;;;;;;3.97;2.30;;;;;;;;;;5096378;28;20446;-70
2023/01/13 07:05:21;;;;;;;4.30;2.60;;;;;;;;;;5095401;28;20455;-70
2023/01/13 07:07:49;;;;;;;3.73;2.67;;;;;;;;;;5095775;28;20446;-71
2023/01/13 07:10:21;;;;;;;4.23;3.37;;;;;;;;;;5095861;28;20457;-71
2023/01/13 07:15:33;;;;;;;24.03;11.70;;;;;;;;;;5095326;28;20422;-70
2023/01/13 07:18:01;;;;;;;25.43;10.23;;;;;;;;;;5095389;28;20482;-71
2023/01/13 07:20:28;;;;;;;35.37;16.80;;;;;;;;;;5095629;28;20978;-71
2023/01/13 07:22:56;;;;;;;7.90;5.03;;;;;;;;;;5095056;28;20798;-71
2023/01/13 07:25:24;;;;;;;19.93;9.27;;;;;;;;;;5094812;28;20473;-71
2023/01/13 07:27:51;;;;;;;23.33;10.77;;;;;;;;;;5095245;28;20446;-71
2023/01/13 07:30:19;;;;;;;43.63;16.23;;;;;;;;;;5094016;28;20668;-71
2023/01/13 07:32:46;;;;;;;16.80;7.23;;;;;;;;;;5095179;28;20518;-72
2023/01/13 07:35:13;;;;;;;3.30;2.87;;;;;;;;;;5094845;28;20504;-71
2023/01/13 07:37:40;;;;;;;3.77;2.10;;;;;;;;;;5095031;28;20455;-72
2023/01/13 07:40:09;;;;;;;6.90;4.23;;;;;;;;;;5095096;28;20458;-71
2023/01/13 07:45:24;;;;;;;3.77;2.90;;;;;;;;;;5094568;28;20426;-72
2023/01/13 07:47:52;;;;;;;7.10;4.90;;;;;;;;;;5094774;28;20465;-71
2023/01/13 07:50:21;;;;;;;3.00;2.20;;;;;;;;;;5090479;28;20454;-71
2023/01/13 07:52:48;;;;;;;3.00;2.37;;;;;;;;;;5093796;28;20487;-71
2023/01/13 07:55:15;;;;;;;3.23;2.03;;;;;;;;;;5094336;28;20846;-71
2023/01/13 07:57:43;;;;;;;6.73;4.30;;;;;;;;;;5094596;28;20450;-72
2023/01/13 08:00:11;;;;;;;10.97;7.53;;;;;;;;;;5094327;28;20553;-71
2023/01/13 08:02:38;;;;;;;4.57;2.90;;;;;;;;;;5094508;28;20454;-71
2023/01/13 08:05:06;;;;;;;5.17;2.33;;;;;;;;;;5093958;28;20454;-71
2023/01/13 08:07:33;;;;;;;3.47;2.30;;;;;;;;;;5094672;28;20454;-71
2023/01/13 08:10:00;;;;;;;3.47;1.70;;;;;;;;;;5093885;28;20975;-71
2023/01/13 08:15:13;;;;;;;5.67;2.70;;;;;;;;;;5093911;28;20430;-71
2023/01/13 08:17:40;;;;;;;3.83;2.57;;;;;;;;;;5093991;28;20450;-72
2023/01/13 08:20:08;;;;;;;5.30;2.77;;;;;;;;;;5093808;28;20789;-71
2023/01/13 08:22:35;;;;;;;2.80;2.47;;;;;;;;;;5094147;28;20447;-71
2023/01/13 08:25:02;;;;;;;6.47;3.70;;;;;;;;;;5093272;28;21065;-72
2023/01/13 08:27:29;;;;;;;5.90;2.50;;;;;;;;;;5094132;28;20461;-72
2023/01/13 08:29:56;;;;;;;2.73;2.10;;;;;;;;;;5091909;28;20475;-72
2023/01/13 08:32:25;;;;;;;2.90;2.33;;;;;;;;;;5094097;28;20483;-71
2023/01/13 08:34:52;;;;;;;3.40;2.90;;;;;;;;;;5093025;28;20970;-72
2023/01/13 08:37:19;;;;;;;8.40;3.40;;;;;;;;;;5093776;28;20459;-71
2023/01/13 08:39:46;;;;;;;5.20;3.47;;;;;;;;;;5093886;28;20478;-72
2023/01/13 08:42:13;;;;;;;13.40;5.63;;;;;;;;;;5093840;28;20453;-72
2023/01/13 08:44:40;;;;;;;5.50;3.90;;;;;;;;;;5093355;28;20469;-71
2023/01/13 08:47:07;;;;;;;3.50;2.80;;;;;;;;;;5093899;28;20482;-72
2023/01/13 08:49:36;;;;;;;2.93;2.10;;;;;;;;;;5094003;28;20475;-72
2023/01/13 08:52:03;;;;;;;4.23;3.13;;;;;;;;;;5093890;28;20453;-72
2023/01/13 08:54:30;;;;;;;3.20;2.57;;;;;;;;;;5093235;28;20544;-71
2023/01/13 08:56:57;;;;;;;5.00;2.33;;;;;;;;;;5093851;28;20984;-71
2023/01/13 08:59:24;;;;;;;3.97;2.30;;;;;;;;;;5093770;28;20812;-71
2023/01/13 09:01:51;;;;;;;3.83;3.43;;;;;;;;;;5093705;28;20458;-71
2023/01/13 09:04:20;;;;;;;3.00;1.93;;;;;;;;;;5093027;28;20458;-71
2023/01/13 09:06:48;;;;;;;3.47;2.40;;;;;;;;;;5093433;28;20462;-72
2023/01/13 09:09:15;;;;;;;2.70;2.23;;;;;;;;;;5093558;28;20466;-71
2023/01/13 09:14:30;;;;;;;5.67;2.57;;;;;;;;;;5092912;28;21016;-72
2023/01/13 09:16:58;;;;;;;4.27;3.47;;;;;;;;;;5093207;28;20458;-72
2023/01/13 09:19:25;;;;;;;5.37;3.30;;;;;;;;;;5093228;28;20975;-71
2023/01/13 09:21:53;;;;;;;9.00;4.40;;;;;;;;;;5093180;28;20462;-71
2023/01/13 09:24:21;;;;;;;3.40;2.27;;;;;;;;;;5092770;28;20971;-71
2023/01/13 09:26:48;;;;;;;5.83;2.47;;;;;;;;;;5093040;28;20462;-72
2023/01/13 09:29:15;;;;;;;4.93;2.67;;;;;;;;;;5093120;28;20876;-72
2023/01/13 09:31:43;;;;;;;4.60;2.77;;;;;;;;;;5091271;28;20454;-72
2023/01/13 09:36:58;;;;;;;9.53;3.20;;;;;;;;;;5093045;28;20526;-71
2023/01/13 09:39:25;;;;;;;4.53;2.50;;;;;;;;;;5088282;28;20478;-71
2023/01/13 09:44:42;;;;;;;2.50;1.77;;;;;;;;;;5092052;28;20445;-71
2023/01/13 09:47:12;;;;;;;3.47;2.30;;;;;;;;;;5092320;28;20447;-71
2023/01/13 09:49:40;;;;;;;3.00;2.40;;;;;;;;;;5092218;28;20471;-71
2023/01/13 09:52:10;;;;;;;3.10;2.07;;;;;;;;;;5092756;28;20451;-71
2023/01/13 09:54:41;;;;;;;2.67;2.10;;;;;;;;;;5091935;28;20577;-71
2023/01/13 09:57:10;;;;;;;5.87;3.57;;;;;;;;;;5092685;28;20815;-70
2023/01/13 09:59:37;;;;;;;6.90;3.63;;;;;;;;;;5092553;28;20466;-71
2023/01/13 10:02:14;;;;;;;4.10;2.47;;;;;;;;;;5092599;28;20457;-71
2023/01/13 10:04:41;;;;;;;4.63;2.50;;;;;;;;;;5091950;28;20438;-71
2023/01/13 10:07:13;;;;;;;3.10;2.33;;;;;;;;;;5092519;28;20458;-71
2023/01/13 10:09:45;;;;;;;6.03;3.27;;;;;;;;;;5092304;28;20470;-71
2023/01/13 10:14:59;;;;;;;7.50;4.57;;;;;;;;;;5091734;28;20520;-72
2023/01/13 10:17:29;;;;;;;8.50;4.70;;;;;;;;;;5092469;28;20457;-71
2023/01/13 10:19:58;;;;;;;6.60;4.00;;;;;;;;;;5092026;28;20466;-71
2023/01/13 10:22:35;;;;;;;14.20;10.67;;;;;;;;;;5092442;28;20443;-71
2023/01/13 10:25:21;;;;;;;4.40;3.67;;;;;;;;;;5091597;28;20446;-71
2023/01/13 10:27:49;;;;;;;5.27;4.20;;;;;;;;;;5091899;28;20804;-71
2023/01/13 10:30:21;;;;;;;5.20;2.90;;;;;;;;;;5090403;28;20447;-71
2023/01/13 10:32:49;;;;;;;9.30;4.57;;;;;;;;;;5092417;28;20453;-71
2023/01/13 10:35:16;;;;;;;12.63;5.70;;;;;;;;;;5091596;28;20450;-71
2023/01/13 10:37:56;;;;;;;11.13;5.67;;;;;;;;;;5092152;28;20826;-72
2023/01/13 10:40:24;;;;;;;26.90;10.57;;;;;;;;;;5091987;28;20454;-72
2023/01/13 10:43:05;;;;;;;19.77;5.40;;;;;;;;;;5091922;28;20466;-71
2023/01/13 10:45:32;;;;;;;6.10;3.90;;;;;;;;;;5091505;28;20947;-72
2023/01/13 10:48:07;;;;;;;5.77;3.83;;;;;;;;;;5092107;28;20490;-71
2023/01/13 10:50:36;;;;;;;7.80;4.77;;;;;;;;;;5091667;28;20496;-72
2023/01/13 10:53:17;;;;;;;8.00;3.50;;;;;;;;;;5092082;28;20432;-72
2023/01/13 10:55:44;;;;;;;4.70;3.30;;;;;;;;;;5091734;28;20450;-71
2023/01/13 10:58:14;;;;;;;3.10;2.23;;;;;;;;;;5092483;28;20466;-71
2023/01/13 11:00:41;;;;;;;2.93;2.43;;;;;;;;;;5095936;28;20473;-71
2023/01/13 11:03:16;;;;;;;3.73;2.40;;;;;;;;;;5092940;28;20454;-71
2023/01/13 11:05:51;;;;;;;2.83;2.57;;;;;;;;;;5094696;28;20450;-72
2023/01/13 11:08:20;;;;;;;5.20;2.93;;;;;;;;;;5095792;28;20468;-71
2023/01/13 11:10:49;;;;;;;5.10;2.87;;;;;;;;;;5095670;28;20446;-72
2023/01/13 11:13:17;;;;;;;6.33;3.97;;;;;;;;;;5095671;28;20486;-71
2023/01/13 11:15:46;;;;;;;7.57;3.80;;;;;;;;;;5095119;28;20927;-71
2023/01/13 11:18:21;;;;;;;3.20;2.70;;;;;;;;;;5095271;28;20478;-71
2023/01/13 11:20:49;;;;;;;5.93;3.50;;;;;;;;;;5095350;28;20459;-71
2023/01/13 11:23:20;;;;;;;3.37;2.40;;;;;;;;;;5095554;28;20447;-71
2023/01/13 11:25:51;;;;;;;2.73;2.10;;;;;;;;;;5095160;28;20454;-71
2023/01/13 11:28:25;;;;;;;2.60;1.90;;;;;;;;;;5095302;28;20471;-71
2023/01/13 11:30:55;;;;;;;3.37;2.13;;;;;;;;;;5093853;28;20445;-71
2023/01/13 11:33:33;;;;;;;2.80;2.23;;;;;;;;;;5095039;28;20489;-71
2023/01/13 11:36:05;;;;;;;2.80;2.17;;;;;;;;;;5095330;28;20450;-71
2023/01/13 11:38:34;;;;;;;2.80;1.50;;;;;;;;;;5095041;28;20475;-71
2023/01/13 11:41:07;;;;;;;2.57;1.80;;;;;;;;;;5095063;28;20458;-71
2023/01/13 11:43:37;;;;;;;3.70;2.07;;;;;;;;;;5094536;28;20454;-71
2023/01/13 11:46:06;;;;;;;4.20;2.97;;;;;;;;;;5095090;28;20459;-71
2023/01/13 11:48:36;;;;;;;3.90;2.40;;;;;;;;;;5094898;28;20806;-71
2023/01/13 11:51:04;;;;;;;8.40;3.93;;;;;;;;;;5094722;28;20458;-72
2023/01/13 11:53:38;;;;;;;3.73;2.57;;;;;;;;;;5093987;28;20482;-73
2023/01/13 11:56:12;;;;;;;6.53;3.13;;;;;;;;;;5094720;28;20458;-71
2023/01/13 11:59:06;;;;;;;3.90;2.60;;;;;;;;;;5094650;28;20479;-72
2023/01/13 12:01:42;;;;;;;6.00;3.57;;;;;;;;;;5058535;28;20450;-73
2023/01/13 12:04:17;;;;;;;8.30;4.47;;;;;;;;;;5094233;28;20454;-71
2023/01/13 12:06:45;;;;;;;5.60;3.83;;;;;;;;;;5094875;28;20457;-71
2023/01/13 12:09:20;;;;;;;13.40;2.93;;;;;;;;;;5094269;28;20524;-72
2023/01/13 12:14:43;;;;;;;2.77;2.00;;;;;;;;;;5094017;28;20552;-72
2023/01/13 12:17:16;;;;;;;6.27;2.47;;;;;;;;;;5094374;28;20461;-71
2023/01/13 12:19:48;;;;;;;3.13;2.00;;;;;;;;;;5093562;28;20482;-71
2023/01/13 12:22:17;;;;;;;2.80;1.90;;;;;;;;;;5094187;28;20458;-71
2023/01/13 12:24:47;;;;;;;3.07;2.23;;;;;;;;;;5093750;28;20449;-72
2023/01/13 12:27:19;;;;;;;3.50;2.20;;;;;;;;;;5092513;28;20451;-71
2023/01/13 12:29:49;;;;;;;3.80;2.67;;;;;;;;;;5091566;28;20986;-72
2023/01/13 12:32:19;;;;;;;4.47;2.60;;;;;;;;;;5094040;28;20450;-71
2023/01/13 12:34:54;;;;;;;3.07;1.90;;;;;;;;;;5093121;28;20486;-72
2023/01/13 12:37:26;;;;;;;3.00;1.90;;;;;;;;;;5094126;28;20462;-71
2023/01/13 12:40:02;;;;;;;3.90;2.30;;;;;;;;;;5093671;28;20991;-72
2023/01/13 12:45:27;;;;;;;3.13;2.40;;;;;;;;;;5093209;28;20557;-72
2023/01/13 12:47:54;;;;;;;6.93;3.63;;;;;;;;;;5092807;28;20456;-71
2023/01/13 12:50:39;;;;;;;3.40;2.50;;;;;;;;;;5093859;28;20457;-71
2023/01/13 12:53:21;;;;;;;4.60;3.43;;;;;;;;;;5093996;28;20498;-72
2023/01/13 12:55:52;;;;;;;5.23;2.23;;;;;;;;;;5077321;28;20494;-71
2023/01/13 12:58:25;;;;;;;4.27;2.53;;;;;;;;;;5093468;28;20562;-71
2023/01/13 13:00:54;;;;;;;4.63;3.00;;;;;;;;;;5093573;28;20463;-71
2023/01/13 13:03:29;;;;;;;5.60;3.27;;;;;;;;;;5093684;28;20810;-73
2023/01/13 13:05:58;;;;;;;4.40;2.40;;;;;;;;;;5093356;28;21027;-72
2023/01/13 13:08:31;;;;;;;5.30;3.20;;;;;;;;;;5093409;28;20466;-71
2023/01/13 13:13:16;;;;;;;3.00;2.37;;;;;;;;;;5093259;28;20490;-71
2023/01/13 13:13:54;;;;;;;7.47;4.37;;;;;;;;;;5092693;28;20491;-71
2023/01/13 13:16:40;;;;;;;3.60;2.80;;;;;;;;;;5093384;28;20450;-71
2023/01/13 13:19:26;;;;;;;3.27;2.80;;;;;;;;;;5093413;28;20481;-71
2023/01/13 13:22:17;;;;;;;2.67;2.27;;;;;;;;;;5092545;28;20996;-71
2023/01/13 13:25:05;;;;;;;3.20;2.17;;;;;;;;;;5092441;28;20793;-71
2023/01/13 13:27:40;;;;;;;2.40;1.87;;;;;;;;;;5093012;28;20466;-71
2023/01/13 13:30:13;;;;;;;2.87;1.87;;;;;;;;;;5091129;28;20506;-71
2023/01/13 13:32:57;;;;;;;5.27;1.93;;;;;;;;;;5093132;28;20950;-72
2023/01/13 13:35:30;;;;;;;2.97;2.40;;;;;;;;;;5092373;28;20862;-72
2023/01/13 13:49:12;;;;;;;2.33;1.77;;;;;;;;;;5093054;28;20552;-72
2023/01/13 13:51:41;;;;;;;2.83;1.90;;;;;;;;;;5093180;28;20490;-71
2023/01/13 13:54:10;;;;;;;4.90;2.57;;;;;;;;;;5092017;28;20491;-72
2023/01/13 13:56:39;;;;;;;3.40;2.47;;;;;;;;;;5092612;28;20459;-71
2023/01/13 13:59:09;;;;;;;2.57;2.10;;;;;;;;;;5092508;28;20475;-71
2023/01/13 14:01:39;;;;;;;2.80;2.10;;;;;;;;;;5092857;28;20451;-71
2023/01/13 14:04:11;;;;;;;3.30;2.33;;;;;;;;;;5092740;28;20947;-71
2023/01/13 14:06:38;;;;;;;2.90;2.33;;;;;;;;;;5092639;28;20946;-72
2023/01/13 14:09:16;;;;;;;2.83;1.80;;;;;;;;;;5092695;28;20812;-72
2023/01/13 14:11:43;;;;;;;3.40;1.90;;;;;;;;;;5092800;28;20454;-72
2023/01/13 14:14:15;;;;;;;3.10;2.03;;;;;;;;;;5092110;28;20486;-72
2023/01/13 14:16:46;;;;;;;3.27;2.00;;;;;;;;;;5092753;28;20982;-72
2023/01/13 14:19:23;;;;;;;4.17;2.13;;;;;;;;;;5092923;28;20494;-72
2023/01/13 14:21:50;;;;;;;2.87;1.80;;;;;;;;;;5092804;28;20446;-71
2023/01/13 14:24:21;;;;;;;2.07;1.43;;;;;;;;;;5092932;28;20463;-72
2023/01/13 14:26:50;;;;;;;1.70;1.30;;;;;;;;;;5092623;28;20462;-72
2023/01/13 14:29:20;;;;;;;1.40;0.90;;;;;;;;;;5092862;28;20478;-71
2023/01/13 14:31:49;;;;;;;6.93;1.20;;;;;;;;;;5090595;28;20446;-71
2023/01/13 14:34:17;;;;;;;1.37;0.97;;;;;;;;;;5094121;28;20477;-71
2023/01/13 14:36:46;;;;;;;3.37;1.33;;;;;;;;;;5096103;28;20864;-72
2023/01/13 14:39:26;;;;;;;1.50;1.10;;;;;;;;;;5096187;28;20479;-71
2023/01/13 14:41:53;;;;;;;1.37;0.97;;;;;;;;;;5096765;28;20450;-71
2023/01/13 14:44:24;;;;;;;1.30;1.00;;;;;;;;;;5095638;28;20461;-71
2023/01/13 14:46:54;;;;;;;1.70;1.10;;;;;;;;;;5096057;28;21053;-72
2023/01/13 14:49:24;;;;;;;2.57;1.00;;;;;;;;;;5096369;28;20478;-71
2023/01/13 14:51:51;;;;;;;2.23;1.10;;;;;;;;;;5095958;28;20935;-71
2023/01/13 14:54:37;;;;;;;1.40;1.00;;;;;;;;;;5095409;28;20462;-72
2023/01/13 14:57:12;;;;;;;1.97;1.30;;;;;;;;;;5095329;28;20465;-71
2023/01/13 14:59:44;;;;;;;2.40;1.50;;;;;;;;;;5096080;28;20476;-71
2023/01/13 15:02:38;;;;;;;1.60;1.10;;;;;;;;;;5096320;28;20446;-71
2023/01/13 15:05:21;;;;;;;2.90;0.90;;;;;;;;;;5059272;28;20833;-71
2023/01/13 15:07:51;;;;;;;1.57;0.87;;;;;;;;;;5083519;28;20462;-70
2023/01/13 15:10:18;;;;;;;3.00;1.13;;;;;;;;;;5096067;28;20450;-70
2023/01/13 15:12:46;;;;;;;2.27;1.00;;;;;;;;;;5095744;28;20454;-70
2023/01/13 15:15:21;;;;;;;2.93;1.50;;;;;;;;;;5095236;28;20486;-72
2023/01/13 15:17:48;;;;;;;1.60;1.00;;;;;;;;;;5095641;28;20458;-71
2023/01/13 15:20:16;;;;;;;1.73;1.10;;;;;;;;;;5095671;28;20447;-70
2023/01/13 15:22:43;;;;;;;4.63;4.23;;;;;;;;;;5095740;28;20454;-70
2023/01/13 15:25:12;;;;;;;2.27;1.27;;;;;;;;;;5095105;28;20455;-71
2023/01/13 15:27:40;;;;;;;3.10;1.30;;;;;;;;;;5095230;28;20481;-71
2023/01/13 15:30:13;;;;;;;1.63;1.10;;;;;;;;;;5093024;28;20455;-71
2023/01/13 15:32:41;;;;;;;1.63;1.10;;;;;;;;;;5095369;28;20451;-71
2023/01/13 15:35:08;;;;;;;3.60;1.90;;;;;;;;;;5094779;28;20478;-71
2023/01/13 15:37:36;;;;;;;2.90;1.40;;;;;;;;;;5077916;28;20967;-71
2023/01/13 15:40:03;;;;;;;4.60;1.17;;;;;;;;;;5078790;28;20708;-71
2023/01/13 15:48:03;;;;;;;1.80;1.43;;;;;;;;;;5067218;28;20557;-71
2023/01/13 15:50:31;;;;;;;1.73;1.20;;;;;;;;;;5093819;28;20819;-71
2023/01/13 15:52:58;;;;;;;3.70;1.30;;;;;;;;;;5093506;28;20792;-71
2023/01/13 15:55:25;;;;;;;4.03;1.07;;;;;;;;;;5091003;28;21029;-71
2023/01/13 15:57:53;;;;;;;3.40;1.70;;;;;;;;;;5093216;28;20914;-71
2023/01/13 16:00:22;;;;;;;6.80;1.93;;;;;;;;;;5093837;28;20451;-71
2023/01/13 16:02:50;;;;;;;6.63;2.73;;;;;;;;;;5093360;28;20446;-72
2023/01/13 16:05:17;;;;;;;2.90;1.90;;;;;;;;;;5093020;28;20458;-71
2023/01/13 16:07:44;;;;;;;9.20;4.53;;;;;;;;;;5092945;28;20446;-71